Aérodrome :
LOGIN :

S'inscrire | Disclaimer

   EN    FR    IT 

 










Légende :    VFR   VFR Marginal   IFR   IFR Intensif   IFR Très Intensif
Visi : 
Plafond : 
>= 8 km
>= 3000ft
5 à 8 km
1000 à 3000 ft
1500m à 5 km
500 à 1000 ft
800 à 1500m
200 à 500 ft
< 800m
< 200 ft
Symboles :   Orages  Brouillard  Fortes neiges  Fortes précipitations  Vent > 20 kt
SIGMETs :   Divers  Orages  Givrage  Turbulence  Onde Orograph.  Cendres Volcan.







- Altitude de l'aérodrome : 26 ft
- Code IATA : GLA
- Voir les cartes d'approche


EGPF - Glasgow

DERNIER METAR :
  • 230820Z AUTO 21019KT 9999 FEW017 BKN022 BKN029 17/14 Q1019

METARs EXPIRÉS :
  • 230750Z AUTO 23016KT 9999 BKN016 17/14 Q1019
  • 230720Z AUTO 24014KT 9999 BKN015 16/14 Q1019
  • 230650Z AUTO 23015KT 9999 SCT014 BKN028 16/14 Q1019
  • 230620Z AUTO 23012KT 9999 BKN013 BKN017 BKN030 16/14 Q1019
  • 230550Z AUTO 21013KT 9999 BKN013 BKN026 OVC030 16/14 Q1019

TAF TAF EGPF
Valide du 23 à 06h jusqu'au 24 à 06h UTC


230457Z 2306/2406 21012KT 9999 SCT015
PROB30
TEMPO 2306/2312 23015G25KT BKN014
BECMG 2316/2319 15005KT
PROB40 2400/2406 8000
ATIS : +44 141 887 7449
Pas de NOTAMs connus pour ce terrain.



MET'MAP, la Météo Aéronautique d'un coup d'oeil ! - Copyright ORBIFLY Décembre 2007 - Disclaimer

ORBIFLY MET'MAP TEAM :

Programmation & Développement : Alexandra Zaïnal
Conception & Développement : Baudouin d'Aumeries
Co-Programmation & Développement : Marc-Olivier Méhu
Soutien technique & logistique : Manuel Goepfert

Contact : metmap@orbifly.com




SOURCES & CREDITS :

   NOAA